Valley River Center, Oregon
Current Conditions -  °F | °C
As of 3:54 PM on Sunday 21 Dec 2014 (Local Time) from KEUG Reporting Station
Overcast Overcast  
Wind Chill: 54°   Ceiling: 2000
Heat Index: 54°   Visibility: 10mi
Dew Point: 50°   Wind: 3mph
Humidity: 86%   Direction: 260°W
Pressure: 30.17"   Gusts: NA
Location:  44.0685°N, 123.082°W
Report Text: KEUG 212354Z 26003KT 10SM BKN020 OVC032 12/10 A3017 RMK AO2 SLP218 VCSH ALQDS 60017 T01220100 10128 20122 53013 $
Loading
Personal Weather Stations






























Interactive Weather Map New forecast layout! Learn more

10-Day Weather Forecast

Advertisements
Track Severe Weather on mobile